Happy Camp, California
Current Conditions -  °F | °C
As of 5:56 AM on Sunday 23 Nov 2014 (Local Time) from KCEC Reporting Station
Clear Clear  
Wind Chill: 43°   Ceiling: Unl
Heat Index: 46°   Visibility: 10mi
Dew Point: 43°   Wind: 6mph
Humidity: 89%   Direction: 100°E
Pressure: 30.38"   Gusts: NA
Location:  41.79°N, 123.38°W
Report Text: KCEC 231356Z AUTO 10005KT 10SM CLR 08/06 A3038 RMK AO2 SLP289 T00780061
Loading
Personal Weather Stations






























Interactive Weather Map New forecast layout! Learn more

10-Day Weather Forecast

Advertisements
Track Severe Weather on mobile